Terminal Aerodrome Forecast
Issued by NWS Corpus Christi, TX

Current Version | Previous Version | Text Only | Print | Product List | Glossary On
Versions: 1 2 3 4 5 6 7 8 9 10 11 12 13
000
FTUS44 KCRP 282327
TAFVCT
TAF
KVCT 282327Z 2900/2924 06008KT P6SM VCTS FEW040CB SCT070 SCT100
     FM290300 03008KT P6SM VCSH SCT025 BKN150
     FM291600 06012KT P6SM VCTS BKN035CB BKN050=

USA.gov is the U.S. government's official web portal to all federal, state and local government web resources and services.